createdAt,value
2022-12-04T02:33:29.508Z,1.77
2022-12-04T02:36:12.456Z,4.20
2022-12-04T02:38:44.278Z,2.55
2022-12-04T02:41:20.120Z,2.75
2022-12-04T02:43:55.173Z,3.03
2022-12-04T02:46:35.832Z,3.65
2022-12-04T02:49:07.097Z,4.30
2022-12-04T02:51:39.972Z,4.13
2022-12-04T02:54:17.568Z,5.35
2022-12-04T02:56:47.933Z,4.28
2022-12-04T02:59:26.866Z,4.32
2022-12-04T03:01:57.771Z,6.63
2022-12-04T03:04:30.883Z,4.28
2022-12-04T03:07:03.019Z,5.63
2022-12-04T03:09:38.121Z,4.55
2022-12-04T03:12:18.789Z,4.25
2022-12-04T03:14:57.331Z,4.13
2022-12-04T03:17:31.332Z,4.22
2022-12-04T03:20:03.874Z,5.43
2022-12-04T03:24:59.841Z,3.55
2022-12-04T03:27:57.650Z,4.47
2022-12-04T03:30:24.994Z,5.00
2022-12-04T03:33:15.416Z,5.70
2022-12-04T03:35:45.233Z,4.78
2022-12-04T03:38:30.997Z,5.82
2022-12-04T03:41:03.955Z,5.35
2022-12-04T03:43:51.101Z,3.72
2022-12-04T03:46:40.171Z,4.38
2022-12-04T03:49:23.890Z,4.32
2022-12-04T03:52:07.196Z,5.40
2022-12-04T03:54:40.656Z,5.25
2022-12-04T03:57:14.408Z,3.22
2022-12-04T04:00:11.613Z,2.00
2022-12-04T04:02:44.916Z,4.72
2022-12-04T04:05:14.493Z,4.80
2022-12-04T04:07:56.717Z,4.70
2022-12-04T04:10:26.797Z,3.53
2022-12-04T04:13:21.464Z,3.33
2022-12-04T04:16:12.142Z,3.33
2022-12-04T04:19:01.185Z,1.83
2022-12-04T04:22:00.417Z,4.18
2022-12-04T04:24:40.542Z,3.88
2022-12-04T04:27:07.857Z,3.63
2022-12-04T04:29:35.611Z,3.97
2022-12-04T04:32:13.661Z,2.67
2022-12-04T04:34:49.763Z,4.18
2022-12-04T04:37:55.151Z,5.75
2022-12-04T04:40:37.514Z,2.88
2022-12-04T04:43:18.884Z,2.67
2022-12-04T04:45:52.960Z,3.13
2022-12-04T04:48:28.137Z,4.10
2022-12-04T04:50:56.021Z,3.08
2022-12-04T04:53:28.830Z,3.03
2022-12-04T04:55:57.025Z,4.78
2022-12-04T04:58:24.113Z,4.45
2022-12-04T05:01:01.824Z,4.25
2022-12-04T05:03:29.912Z,3.95
2022-12-04T05:05:57.061Z,4.20
2022-12-04T05:08:24.054Z,4.25
2022-12-04T05:10:51.566Z,3.78
2022-12-04T05:13:20.027Z,4.40
2022-12-04T05:16:17.538Z,4.82
2022-12-04T05:19:06.993Z,5.47
2022-12-04T05:21:36.172Z,4.15
2022-12-04T05:24:06.626Z,3.63
2022-12-04T05:26:35.188Z,4.50
2022-12-04T05:29:03.331Z,5.35
2022-12-04T05:31:30.842Z,4.45
2022-12-04T05:33:59.479Z,4.13
2022-12-04T05:36:28.581Z,4.90
2022-12-04T05:38:56.616Z,3.72
2022-12-04T05:41:24.819Z,4.85
2022-12-04T05:43:53.756Z,5.35
2022-12-04T05:46:21.656Z,4.43
2022-12-04T05:48:50.985Z,7.05
2022-12-04T05:51:19.261Z,4.88
2022-12-04T05:53:47.590Z,4.40
2022-12-04T05:56:16.147Z,3.58
2022-12-04T05:58:45.193Z,3.05
2022-12-04T06:01:17.985Z,5.50
2022-12-04T06:03:48.456Z,5.13
2022-12-04T06:06:25.635Z,4.32
2022-12-04T06:08:56.105Z,2.80
2022-12-04T06:11:26.831Z,5.60
2022-12-04T06:13:55.682Z,5.38
2022-12-04T06:16:30.884Z,3.63
2022-12-04T06:19:01.870Z,4.65
2022-12-04T06:21:34.306Z,3.80
2022-12-04T06:24:07.730Z,4.22
2022-12-04T06:26:36.585Z,4.35
2022-12-04T06:29:04.755Z,5.28
2022-12-04T06:31:34.160Z,4.20
2022-12-04T06:34:03.160Z,4.78
2022-12-04T06:36:31.643Z,3.38
2022-12-04T06:39:00.856Z,6.80
2022-12-04T06:41:30.627Z,5.20
2022-12-04T06:43:59.841Z,5.20
2022-12-04T06:46:31.585Z,4.32
2022-12-04T06:49:02.569Z,4.75
2022-12-04T06:51:37.501Z,5.75
2022-12-04T06:54:05.930Z,5.20
2022-12-04T06:56:35.683Z,4.07
2022-12-04T06:59:05.202Z,4.68
2022-12-04T07:01:35.177Z,3.83
2022-12-04T07:04:05.164Z,4.47
2022-12-04T07:06:39.093Z,5.43
2022-12-04T07:09:10.163Z,4.53
2022-12-04T07:11:39.335Z,4.40
2022-12-04T07:14:08.530Z,3.33
2022-12-04T07:16:41.399Z,4.95
2022-12-04T07:19:11.580Z,5.97
2022-12-04T07:21:38.938Z,2.63
2022-12-04T07:24:06.754Z,4.93
2022-12-04T07:26:34.143Z,5.15
2022-12-04T07:29:01.570Z,6.57
2022-12-04T07:31:30.229Z,5.97
2022-12-04T07:33:58.708Z,5.90
2022-12-04T07:36:28.021Z,5.93
2022-12-04T07:38:56.978Z,3.22
2022-12-04T07:41:25.595Z,4.07
2022-12-04T07:43:54.595Z,6.25
2022-12-04T07:46:25.890Z,6.43
2022-12-04T07:48:56.772Z,5.63
2022-12-04T07:51:28.344Z,3.85
2022-12-04T07:54:03.706Z,5.87
2022-12-04T07:56:32.669Z,5.03
2022-12-04T07:59:01.460Z,6.00
2022-12-04T08:01:29.197Z,4.88
2022-12-04T08:03:59.092Z,5.07
2022-12-04T08:06:29.435Z,6.63
2022-12-04T08:08:57.725Z,5.47
2022-12-04T08:11:27.019Z,6.13
2022-12-04T08:13:58.483Z,5.18
2022-12-04T08:16:27.849Z,5.88
2022-12-04T08:18:56.168Z,5.22
2022-12-04T08:21:27.850Z,5.30
2022-12-04T08:23:57.202Z,5.22
2022-12-04T08:26:27.645Z,5.10
2022-12-04T08:28:57.673Z,6.00
2022-12-04T08:31:27.156Z,4.57
2022-12-04T08:33:57.671Z,5.78
2022-12-04T08:36:26.476Z,5.30
2022-12-04T08:38:56.154Z,4.82
2022-12-04T08:41:31.548Z,5.25
2022-12-04T08:44:01.469Z,4.97
2022-12-04T08:46:32.828Z,6.10
2022-12-04T08:49:01.629Z,5.82
2022-12-04T08:51:32.740Z,4.50
2022-12-04T08:54:06.730Z,4.38
2022-12-04T08:56:36.513Z,4.82
2022-12-04T08:59:04.841Z,4.45
2022-12-04T09:01:32.638Z,4.57
2022-12-04T09:04:02.946Z,4.38
2022-12-04T09:06:30.852Z,5.22
2022-12-04T09:08:58.735Z,5.38
2022-12-04T09:11:29.472Z,4.80
2022-12-04T09:13:57.377Z,4.13
2022-12-04T09:16:26.648Z,4.70
2022-12-04T09:18:56.471Z,5.22
2022-12-04T09:21:25.425Z,4.05
2022-12-04T09:23:53.382Z,5.70
2022-12-04T09:26:26.878Z,4.28
2022-12-04T09:28:56.537Z,4.45
2022-12-04T09:31:25.430Z,4.97
2022-12-04T09:33:53.488Z,5.13
2022-12-04T09:36:22.483Z,4.53
2022-12-04T09:38:52.643Z,5.53
2022-12-04T09:41:32.495Z,5.47
2022-12-04T09:44:29.698Z,5.60
2022-12-04T09:47:03.858Z,5.28
2022-12-04T09:49:44.128Z,5.25
2022-12-04T09:52:36.296Z,5.60
2022-12-04T09:55:08.548Z,4.65
2022-12-04T09:57:45.086Z,4.65
2022-12-04T10:00:16.007Z,5.00
2022-12-04T10:02:53.536Z,5.07
2022-12-04T10:05:30.778Z,5.93
2022-12-04T10:08:16.830Z,5.53
2022-12-04T10:11:05.325Z,5.13
2022-12-04T10:13:45.297Z,4.47
2022-12-04T10:16:49.615Z,5.13
2022-12-04T10:19:41.586Z,4.15
2022-12-04T10:22:24.520Z,5.18
2022-12-04T10:27:26.481Z,4.07
2022-12-04T10:30:02.149Z,5.55
2022-12-04T10:32:33.430Z,5.13
2022-12-04T10:35:27.005Z,4.70
2022-12-04T10:38:01.223Z,6.28
2022-12-04T10:40:46.945Z,5.82
2022-12-04T10:43:43.304Z,5.55
2022-12-04T10:46:24.319Z,4.90
2022-12-04T10:48:59.660Z,5.07
2022-12-04T10:51:30.357Z,5.03
2022-12-04T10:53:59.961Z,4.78
2022-12-04T10:56:28.566Z,5.85
2022-12-04T10:59:01.308Z,5.20
2022-12-04T11:01:35.631Z,6.03
2022-12-04T11:04:21.226Z,5.70
2022-12-04T11:07:02.070Z,4.38
2022-12-04T11:09:30.958Z,4.60
2022-12-04T11:12:20.616Z,4.80
2022-12-04T11:14:48.215Z,3.78
2022-12-04T11:17:21.421Z,4.53
2022-12-04T11:20:00.665Z,4.63
2022-12-04T11:22:29.157Z,4.03
2022-12-04T11:25:00.621Z,4.55
2022-12-04T11:27:35.029Z,5.13
2022-12-04T11:30:09.268Z,4.40
2022-12-04T11:32:38.621Z,5.28
2022-12-04T11:35:18.182Z,5.03
2022-12-04T11:38:21.362Z,3.42
2022-12-04T11:40:55.954Z,4.28
2022-12-04T11:43:30.297Z,4.32
2022-12-04T11:45:59.883Z,4.32
2022-12-04T11:48:31.979Z,4.63
2022-12-04T11:51:28.747Z,5.43
2022-12-04T11:54:02.615Z,3.78
2022-12-04T11:56:35.639Z,5.03
2022-12-04T11:59:07.515Z,5.38
2022-12-04T12:02:12.783Z,3.53
2022-12-04T12:05:37.865Z,3.65
2022-12-04T12:08:26.235Z,4.28
2022-12-04T12:10:56.273Z,4.90
2022-12-04T12:13:56.355Z,4.70
2022-12-04T12:16:41.837Z,3.20
2022-12-04T12:19:36.532Z,2.92
2022-12-04T12:22:28.469Z,4.15
2022-12-04T12:25:05.502Z,3.55
2022-12-04T12:27:44.746Z,3.58
2022-12-04T12:30:22.154Z,2.80
2022-12-04T12:33:09.836Z,2.28
2022-12-04T12:36:01.426Z,3.65
2022-12-04T12:38:47.294Z,2.75
2022-12-04T12:41:20.719Z,3.17
2022-12-04T12:44:16.645Z,3.53
2022-12-04T12:47:08.413Z,4.95
2022-12-04T12:49:55.255Z,3.05
2022-12-04T12:52:34.713Z,4.15
2022-12-04T12:55:18.387Z,3.00
2022-12-04T12:57:53.315Z,4.30
2022-12-04T13:00:24.145Z,5.32
2022-12-04T13:02:58.656Z,4.80
2022-12-04T13:05:32.058Z,4.88
2022-12-04T13:08:25.069Z,4.40
2022-12-04T13:11:07.340Z,3.95
2022-12-04T13:13:41.256Z,2.78
2022-12-04T13:16:23.907Z,3.90
2022-12-04T13:19:18.155Z,3.60
2022-12-04T13:21:51.744Z,4.80
2022-12-04T13:24:48.941Z,4.07
2022-12-04T13:27:35.239Z,3.72
2022-12-04T13:30:23.763Z,3.45
2022-12-04T13:33:08.492Z,5.72
2022-12-04T13:35:42.224Z,3.88
2022-12-04T13:38:42.499Z,2.83
2022-12-04T13:41:24.162Z,4.90
2022-12-04T13:43:59.677Z,4.45
2022-12-04T13:46:36.093Z,3.13
2022-12-04T13:49:20.205Z,3.20
2022-12-04T13:51:49.742Z,3.67
2022-12-04T13:54:17.327Z,3.33
2022-12-04T13:56:54.225Z,4.32
2022-12-04T13:59:24.441Z,3.17
2022-12-04T14:02:04.962Z,2.20
2022-12-04T14:04:46.523Z,2.60
2022-12-04T14:07:37.485Z,2.97
2022-12-04T14:10:09.699Z,2.05
2022-12-04T14:12:42.674Z,3.22
2022-12-04T14:15:20.843Z,2.67
2022-12-04T18:41:46.647Z,2.20
2022-12-04T18:44:13.290Z,0.93
2022-12-04T18:46:40.308Z,4.55
2022-12-04T18:49:09.460Z,9.32
2022-12-04T18:51:43.714Z,9.93
2022-12-04T18:54:17.475Z,3.92
2022-12-04T18:56:44.991Z,3.20
2022-12-04T18:59:17.720Z,4.00
2022-12-04T19:01:47.549Z,7.18
2022-12-04T19:04:17.686Z,4.32
2022-12-04T19:06:48.179Z,2.00
2022-12-04T19:09:18.313Z,3.47
2022-12-04T19:11:46.684Z,4.47
2022-12-04T19:14:22.776Z,3.13
2022-12-04T19:16:51.611Z,2.17
2022-12-04T19:19:18.817Z,3.88
2022-12-04T19:21:46.275Z,1.15
2022-12-04T19:24:13.864Z,2.95
2022-12-04T19:26:41.447Z,3.30
2022-12-04T19:29:09.121Z,2.45
2022-12-04T19:31:37.791Z,3.25
2022-12-04T19:34:06.429Z,3.83
2022-12-04T19:36:34.657Z,2.00
2022-12-04T19:39:03.358Z,1.17
2022-12-04T19:41:33.768Z,1.73
2022-12-04T19:44:03.437Z,1.98
2022-12-04T19:46:38.367Z,3.17
2022-12-04T19:49:08.519Z,3.22
2022-12-04T19:51:40.505Z,2.60
2022-12-04T19:54:13.243Z,4.53
2022-12-04T19:56:40.678Z,4.03
2022-12-04T19:59:08.651Z,3.35
2022-12-04T20:01:36.234Z,3.22
2022-12-04T20:04:06.830Z,2.35
2022-12-04T20:06:45.472Z,3.65
2022-12-04T20:09:15.875Z,1.67
2022-12-04T20:11:42.898Z,1.70
2022-12-04T20:14:10.341Z,2.47
2022-12-04T20:16:38.904Z,1.55
2022-12-04T20:19:13.068Z,1.63
2022-12-04T20:21:40.119Z,2.47
2022-12-04T20:24:07.710Z,2.67
2022-12-04T20:26:38.605Z,3.33
2022-12-04T20:29:07.576Z,1.83
2022-12-04T20:31:37.640Z,1.58
2022-12-04T20:34:08.896Z,2.42
2022-12-04T20:36:38.546Z,2.03
2022-12-04T20:39:07.222Z,1.88
2022-12-04T20:41:36.104Z,1.77
2022-12-04T20:44:07.157Z,2.58
2022-12-04T20:46:39.089Z,2.22
2022-12-04T20:49:14.566Z,1.63
2022-12-04T20:51:44.908Z,2.22
2022-12-04T20:54:18.629Z,1.67
2022-12-04T20:56:48.847Z,2.08
2022-12-04T20:59:18.187Z,3.22
2022-12-04T21:01:45.638Z,1.20
2022-12-04T21:04:13.183Z,1.75
2022-12-04T21:06:41.131Z,1.17
2022-12-04T21:09:14.042Z,0.80
2022-12-04T21:11:44.376Z,1.55
2022-12-04T21:14:42.865Z,1.80
2022-12-04T21:17:14.441Z,1.98
2022-12-04T21:19:41.347Z,1.47
2022-12-04T21:22:08.560Z,3.10
2022-12-04T21:24:38.856Z,1.83
2022-12-04T21:27:09.271Z,0.80
2022-12-04T21:29:37.830Z,2.72
2022-12-04T21:32:06.280Z,1.27
2022-12-04T21:34:33.694Z,2.97
2022-12-04T21:37:00.638Z,1.50
2022-12-04T21:39:27.882Z,2.40
2022-12-04T21:42:13.313Z,1.17
2022-12-04T21:44:40.683Z,1.63
2022-12-04T21:47:07.671Z,2.25
2022-12-04T21:49:34.739Z,1.83
2022-12-04T21:52:01.727Z,0.65
2022-12-04T21:54:29.363Z,1.30
2022-12-04T21:56:58.644Z,1.85
2022-12-04T21:59:26.081Z,1.63
2022-12-04T22:01:53.806Z,1.42
2022-12-04T22:04:21.547Z,0.52
2022-12-04T22:06:48.903Z,1.15
2022-12-04T22:09:16.379Z,1.45
2022-12-04T22:11:43.997Z,1.00
2022-12-04T22:14:12.187Z,1.40
2022-12-04T22:16:42.741Z,0.47
